Terminal Aerodrome Forecast
Issued by NWS

Home | Current Version | Previous Version | Text Only | Print | Product List | Glossary On
Versions: 1 2 3 4 5 6 7 8 9 10 11 12 13 14 15 16 17 18 19 20 21 22 23 24 25 26 27 28 29 30
150
FTUS43 KDVN 250652 AAA
TAFCID
TAF AMD
KCID 250652Z 2507/2606 27020G30KT P6SM BKN020 OVC035
     FM251000 26018G27KT P6SM BKN025
     FM251200 26016G26KT P6SM SCT030
     FM260000 23008KT P6SM SCT250=

USA.gov is the U.S. government's official web portal to all federal, state and local government web resources and services.